Latest Coastal Weather Observations for Walpole North

IDW60701

Issued at 4:13 am WST Friday 26 August 2016 (issued every 10 minutes, with the page automatically refreshed every 10 minutes)

About coastal observations | Map of coastal stations | Coastal observations for WA | Marine services | Other Formats
Station Details ID: 009998 Name: NORTH WALPOLE Lat: -34.95 Lon: 116.72 Height: 73.0 m
Data from the previous 72 hours. | See also: Recent months at Walpole North
Date/Time
WST
Temp
°C
Wind Pressure Rain since
9am
mm
Weather Cloud Vis
km
Sea
Height
m
Swell
Dir  Spd
kts
Gust
kts
hPa Trend Height
m
Period
s
Dir
26/04:00am 11.6 NNE 9 17 1012.6 - 0.0 - - - - - - -
26/03:30am 11.1 NE 5 12 1013.0 - 0.0 - - - - - - -
26/03:00am 11.3 NNE 7 13 1013.6 - 0.0 - - - - - - -
26/02:30am 11.1 NNE 6 10 1014.6 - 0.0 - - - - - - -
26/02:00am 11.2 NNE 7 13 1015.0 - 0.0 - - - - - - -
26/01:30am 10.7 NNE 7 12 1015.6 - 0.0 - - - - - - -
26/01:00am 9.8 NNE 6 11 1016.0 - 0.0 - - - - - - -
26/12:30am 8.7 ENE 5 8 1016.6 - 0.0 - - - - - - -
26/12:00am 9.0 NE 5 7 1016.9 - 0.0 - - - - - - -
 
Date/Time
WST
Temp
°C
Wind Pressure Rain since
9am
mm
Weather Cloud Vis
km
Sea
Height
m
Swell
Dir  Spd
kts
Gust
kts
hPa Trend Height
m
Period
s
Dir
25/11:30pm 9.5 NNE 4 7 1017.7 - 0.0 - - - - - - -
25/11:00pm 9.8 NE 4 9 1018.3 - 0.0 - - - - - - -
25/10:30pm 9.2 ENE 2 6 1018.6 - 0.0 - - - - - - -
25/10:00pm 9.5 CALM 0 0 1019.1 - 0.0 - - - - - - -
25/09:30pm 10.6 CALM 0 3 1019.3 - 0.0 - - - - - - -
25/09:00pm 10.8 N 1 6 1019.5 - 0.0 - - - - - - -
25/08:30pm 10.9 N 2 6 1019.7 - 0.0 - - - - - - -
25/08:00pm 10.6 CALM 0 0 1019.8 - 0.0 - - - - - - -
25/07:30pm 10.8 CALM 0 0 1020.0 - 0.0 - - - - - - -
25/07:00pm 11.3 N 1 4 1020.2 - 0.0 - - - - - - -
25/06:30pm 12.5 NNE 4 7 1019.8 - 0.0 - - - - - - -
25/06:00pm 13.1 NNE 5 8 1019.5 - 0.0 - - - - - - -
25/05:30pm 13.9 NNE 3 8 1019.2 - 0.0 - - - - - - -
25/05:00pm 15.0 NNE 5 8 1018.8 - 0.0 - - - - - - -
25/04:30pm 15.6 NE 6 10 1018.8 - 0.0 - - - - - - -
25/04:00pm 16.7 NNE 3 7 1019.2 - 0.0 - - - - - - -
25/03:30pm 16.5 NE 6 13 1019.6 - 0.0 - - - - - - -
25/03:00pm 17.0 NNE 7 13 1020.2 - 0.0 - - - - - - -
25/02:30pm 16.4 NNE 5 11 1020.6 - 0.0 - - - - - - -
25/02:00pm 16.5 NNE 7 11 1021.0 - 0.0 - - - - - - -
25/01:30pm 16.3 N 4 9 1021.3 - 0.0 - - - - - - -
25/01:00pm 15.9 NNW 7 11 1021.9 - 0.0 - - - - - - -
25/12:30pm 16.0 NNW 5 8 1022.7 - 0.0 - - - - - - -
25/12:00pm 15.5 N 5 12 1023.5 - 0.0 - - - - - - -
25/11:30am 15.3 NNE 6 12 1024.1 - 0.0 - - - - - - -
25/11:00am 14.3 NNE 6 13 1024.6 - 0.0 - - - - - - -
25/10:30am 13.5 NNE 8 14 1025.0 - 0.0 - - - - - - -
25/10:00am 12.6 NNE 8 15 1025.3 - 0.0 - - - - - - -
25/09:30am 12.5 NNE 4 9 1025.6 - 0.0 - - - - - - -
25/09:00am 11.5 NNE 2 6 1025.8 - 0.0 - - - - - - -
25/08:30am 10.4 NE 4 6 1025.8 - 0.0 - - - - - - -
25/08:00am 9.0 NNE 3 8 1026.0 - 0.0 - - - - - - -
25/07:30am 7.7 NE 3 6 1025.9 - 0.0 - - - - - - -
25/07:00am 7.1 NE 4 5 1025.7 - 0.0 - - - - - - -
25/06:30am 7.7 NE 4 5 1025.4 - 0.0 - - - - - - -
25/06:00am 7.6 NE 4 5 1025.3 - 0.0 - - - - - - -
25/05:30am 7.8 ENE 5 7 1025.2 - 0.0 - - - - - - -
25/05:00am 7.6 ENE 4 6 1025.2 - 0.0 - - - - - - -
25/04:30am 7.5 NE 3 5 1025.1 - 0.0 - - - - - - -
25/04:00am 7.4 NE 5 7 1025.3 - 0.0 - - - - - - -
25/03:30am 6.6 CALM 0 0 1025.5 - 0.0 - - - - - - -
25/03:00am 7.1 CALM 0 0 1025.6 - 0.0 - - - - - - -
25/02:30am 7.1 CALM 0 0 1025.6 - 0.0 - - - - - - -
25/02:00am 7.0 ENE 3 5 1025.6 - 0.0 - - - - - - -
25/01:30am 7.8 NE 5 8 1025.6 - 0.0 - - - - - - -
25/01:00am 8.0 ENE 6 9 1026.0 - 0.0 - - - - - - -
25/12:30am 7.9 NE 6 9 1026.2 - 0.0 - - - - - - -
25/12:00am 7.8 NE 6 9 1026.4 - 0.0 - - - - - - -
 
Date/Time
WST
Temp
°C
Wind Pressure Rain since
9am
mm
Weather Cloud Vis
km
Sea
Height
m
Swell
Dir  Spd
kts
Gust
kts
hPa Trend Height
m
Period
s
Dir
24/11:30pm 8.7 ENE 5 7 1026.5 - 0.0 - - - - - - -
24/11:00pm 8.7 NE 5 9 1026.6 - 0.0 - - - - - - -
24/10:30pm 8.5 NE 5 9 1026.8 - 0.0 - - - - - - -
24/10:00pm 8.7 NE 5 7 1027.1 - 0.0 - - - - - - -
24/09:30pm 8.9 ENE 4 7 1027.5 - 0.0 - - - - - - -
24/09:00pm 9.0 NE 4 5 1027.3 - 0.0 - - - - - - -
24/08:30pm 9.0 ENE 5 6 1027.0 - 0.0 - - - - - - -
24/08:00pm 9.4 CALM 0 0 1026.9 - 0.0 - - - - - - -
24/07:30pm 9.4 CALM 0 0 1026.8 - 0.0 - - - - - - -
24/07:00pm 9.9 CALM 0 3 1026.6 - 0.0 - - - - - - -
24/06:30pm 10.8 ESE 5 7 1026.5 - 0.0 - - - - - - -
24/06:00pm 11.3 ESE 4 6 1026.3 - 0.0 - - - - - - -
24/05:30pm 12.0 ESE 6 9 1025.9 - 0.0 - - - - - - -
24/05:00pm 12.5 ESE 5 8 1025.9 - 0.0 - - - - - - -
24/04:30pm 12.7 ESE 6 9 1025.9 - 0.0 - - - - - - -
24/04:00pm 12.9 E 6 9 1025.8 - 0.0 - - - - - - -
24/03:30pm 13.0 E 6 9 1025.8 - 0.0 - - - - - - -
24/03:00pm 13.2 SE 7 11 1025.9 - 0.0 - - - - - - -
24/02:30pm 13.6 SE 8 13 1025.7 - 0.0 - - - - - - -
24/02:00pm 14.1 SSE 8 14 1025.8 - 0.0 - - - - - - -
24/01:30pm 13.5 SE 6 16 1025.9 - 0.0 - - - - - - -
24/01:00pm 13.9 S 6 9 1026.1 - 0.0 - - - - - - -
24/12:30pm 14.7 SSE 5 9 1026.2 - 0.0 - - - - - - -
24/12:00pm 13.3 S 4 7 1026.7 - 0.0 - - - - - - -
24/11:30am 14.1 SE 5 8 1026.8 - 0.0 - - - - - - -
24/11:00am 13.1 ENE 4 10 1026.9 - 0.0 - - - - - - -
24/10:30am 14.0 E 1 5 1027.2 - 0.0 - - - - - - -
24/10:00am 12.0 CALM 0 0 1027.2 - 0.0 - - - - - - -
24/09:30am 10.6 CALM 0 0 1027.1 - 0.0 - - - - - - -
24/09:00am 7.5 CALM 0 0 1027.2 - 0.0 - - - - - - -
24/08:30am 6.7 CALM 0 0 1027.2 - 0.0 - - - - - - -
24/08:00am 5.0 CALM 0 0 1027.0 - 0.0 - - - - - - -
24/07:30am 3.8 CALM 0 0 1026.7 - 0.0 - - - - - - -
24/07:00am 2.9 CALM 0 0 1026.5 - 0.0 - - - - - - -
24/06:30am 2.9 CALM 0 0 1026.4 - 0.0 - - - - - - -
24/06:00am 2.9 CALM 0 0 1026.3 - 0.0 - - - - - - -
24/05:30am 3.3 CALM 0 0 1026.2 - 0.0 - - - - - - -
24/05:00am 3.5 CALM 0 0 1026.1 - 0.0 - - - - - - -
24/04:30am 3.6 CALM 0 0 1025.9 - 0.0 - - - - - - -
24/04:00am 3.7 CALM 0 0 1025.7 - 0.0 - - - - - - -
24/03:30am 3.3 CALM 0 0 1025.8 - 0.0 - - - - - - -
24/03:00am 3.3 CALM 0 0 1025.7 - 0.0 - - - - - - -
24/02:30am 3.4 CALM 0 0 1025.8 - 0.0 - - - - - - -
24/02:00am 4.0 CALM 0 0 1025.8 - 0.0 - - - - - - -
24/01:30am 4.4 CALM 0 0 1026.0 - 0.0 - - - - - - -
24/01:00am 4.5 CALM 0 0 1025.9 - 0.0 - - - - - - -
24/12:30am 4.8 CALM 0 0 1025.8 - 0.0 - - - - - - -
24/12:00am 6.5 NE 3 6 1025.7 - 0.0 - - - - - - -
 
Date/Time
WST
Temp
°C
Wind Pressure Rain since
9am
mm
Weather Cloud Vis
km
Sea
Height
m
Swell
Dir  Spd
kts
Gust
kts
hPa Trend Height
m
Period
s
Dir
23/11:30pm 7.0 NE 5 8 1025.7 - 0.0 - - - - - - -
23/11:00pm 7.2 NE 5 8 1025.7 - 0.0 - - - - - - -
23/10:30pm 7.3 NE 6 8 1025.8 - 0.0 - - - - - - -
23/10:00pm 7.4 NE 6 8 1026.0 - 0.0 - - - - - - -
23/09:30pm 7.4 NE 6 8 1026.2 - 0.0 - - - - - - -
23/09:00pm 7.7 NE 5 6 1026.3 - 0.0 - - - - - - -
23/08:30pm 7.4 ENE 4 5 1026.0 - 0.0 - - - - - - -
23/08:00pm 7.1 ESE 4 5 1025.8 - 0.0 - - - - - - -
23/07:30pm 7.3 CALM 0 0 1025.6 - 0.0 - - - - - - -
23/07:00pm 7.6 CALM 0 0 1025.4 - 0.0 - - - - - - -
23/06:30pm 8.6 CALM 0 0 1025.1 - 0.0 - - - - - - -
23/06:00pm 9.1 ESE 3 4 1024.9 - 0.0 - - - - - - -
23/05:30pm 10.1 ESE 6 9 1024.5 - 0.0 - - - - - - -
23/05:00pm 11.3 SE 7 10 1024.2 - 0.0 - - - - - - -
23/04:30pm 12.0 ESE 8 12 1023.9 - 0.0 - - - - - - -
23/04:00pm 12.8 SE 7 11 1024.0 - 0.0 - - - - - - -
23/03:30pm 13.1 SE 8 11 1023.8 - 0.0 - - - - - - -
23/03:00pm 13.1 SE 8 11 1023.8 - 0.0 - - - - - - -
23/02:30pm 13.8 SE 6 11 1023.7 - 0.0 - - - - - - -
23/02:00pm 13.4 E 8 12 1023.6 - 0.0 - - - - - - -
23/01:30pm 13.5 SE 9 13 1023.8 - 0.0 - - - - - - -
23/01:00pm 13.4 ESE 7 11 1024.0 - 0.0 - - - - - - -
23/12:30pm 13.4 SE 10 15 1024.3 - 0.0 - - - - - - -
23/12:00pm 12.2 SE 10 13 1024.7 - 0.0 - - - - - - -
23/11:30am 12.8 SE 8 13 1024.9 - 0.0 - - - - - - -
23/11:00am 12.0 SE 8 11 1025.1 - 0.0 - - - - - - -
23/10:30am 11.5 SSE 4 11 1025.3 - 0.0 - - - - - - -
23/10:00am 12.0 ESE 6 8 1025.3 - 0.0 - - - - - - -
23/09:30am 11.7 S 1 5 1025.3 - 0.0 - - - - - - -
23/09:00am 10.4 CALM 0 0 1025.3 - 0.2 - - - - - - -
23/08:30am 10.0 CALM 0 0 1025.0 - 0.2 - - - - - - -
23/08:00am 8.0 CALM 0 0 1024.8 - 0.2 - - - - - - -
23/07:30am 6.4 CALM 0 0 1024.5 - 0.2 - - - - - - -
23/07:00am 6.7 CALM 0 0 1024.3 - 0.2 - - - - - - -
23/06:30am 7.0 CALM 0 0 1024.1 - 0.0 - - - - - - -
23/06:00am 6.9 CALM 0 0 1024.0 - 0.0 - - - - - - -
23/05:30am 6.4 CALM 0 5 1023.8 - 0.0 - - - - - - -
23/05:00am 6.5 CALM 0 0 1023.7 - 0.0 - - - - - - -
23/04:30am 7.3 CALM 0 0 1023.4 - 0.0 - - - - - - -

Other Formats:

Comma delimited format used in spreadsheet applications
http://www.bom.gov.au/fwo/IDW60701/IDW60701.95647.axf

JavaScript Object Notation format (JSON) in row-major order
http://www.bom.gov.au/fwo/IDW60701/IDW60701.95647.json